createdAt,value
2022-10-22T00:00:17.800Z,17.23
2022-10-22T00:02:44.748Z,17.24
2022-10-22T00:05:11.652Z,17.23
2022-10-22T00:07:38.754Z,17.20
2022-10-22T00:10:07.490Z,17.19
2022-10-22T00:12:35.068Z,17.18
2022-10-22T00:15:02.301Z,17.14
2022-10-22T00:17:29.010Z,17.13
2022-10-22T00:19:55.790Z,17.13
2022-10-22T00:22:22.485Z,17.13
2022-10-22T00:24:49.309Z,17.10
2022-10-22T00:27:16.038Z,17.06
2022-10-22T00:29:42.873Z,17.06
2022-10-22T00:32:09.590Z,17.07
2022-10-22T00:34:36.438Z,17.11
2022-10-22T00:37:03.251Z,17.11
2022-10-22T00:39:30.242Z,17.08
2022-10-22T00:41:58.433Z,17.04
2022-10-22T00:45:01.988Z,17.02
2022-10-22T00:47:33.148Z,17.02
2022-10-22T00:50:01.688Z,17.04
2022-10-22T00:52:29.056Z,17.05
2022-10-22T00:54:57.022Z,17.07
2022-10-22T00:57:24.048Z,17.06
2022-10-22T00:59:50.814Z,17.04
2022-10-22T01:02:18.067Z,17.02
2022-10-22T01:04:45.318Z,16.99
2022-10-22T01:07:20.499Z,17.01
2022-10-22T01:10:14.238Z,17.02
2022-10-22T01:12:41.298Z,17.00
2022-10-22T01:15:49.008Z,17.03
2022-10-22T01:18:38.157Z,17.20
2022-10-22T01:21:27.257Z,17.21
2022-10-22T01:24:11.842Z,17.17
2022-10-22T01:26:57.110Z,17.10
2022-10-22T01:29:37.645Z,17.06
2022-10-22T01:32:13.286Z,17.03
2022-10-22T01:34:43.933Z,17.01
2022-10-22T01:37:14.048Z,16.94
2022-10-22T01:39:43.964Z,16.88
2022-10-22T01:42:12.831Z,16.90
2022-10-22T01:44:40.312Z,16.91
2022-10-22T01:47:27.978Z,16.88
2022-10-22T01:50:03.543Z,16.87
2022-10-22T01:52:58.494Z,16.85
2022-10-22T01:55:38.756Z,16.84
2022-10-22T01:58:11.309Z,16.81
2022-10-22T02:00:44.820Z,16.79
2022-10-22T02:03:22.770Z,16.76
2022-10-22T02:06:05.863Z,16.77
2022-10-22T02:08:35.674Z,16.79
2022-10-22T02:11:04.255Z,16.79
2022-10-22T02:13:37.770Z,16.75
2022-10-22T02:16:08.142Z,16.73
2022-10-22T02:18:38.818Z,16.73
2022-10-22T02:23:35.693Z,16.72
2022-10-22T02:26:34.794Z,16.74
2022-10-22T02:29:12.053Z,16.77
2022-10-22T02:31:43.480Z,16.75
2022-10-22T02:34:16.067Z,16.70
2022-10-22T02:36:48.070Z,16.67
2022-10-22T02:39:19.268Z,16.66
2022-10-22T02:41:46.031Z,16.63
2022-10-22T02:44:12.798Z,16.59
2022-10-22T02:46:40.557Z,16.63
2022-10-22T02:49:07.484Z,16.65
2022-10-22T02:51:34.754Z,16.67
2022-10-22T02:54:01.543Z,16.64
2022-10-22T02:56:28.395Z,16.63
2022-10-22T02:58:55.164Z,16.64
2022-10-22T03:01:22.119Z,16.62
2022-10-22T03:03:49.277Z,16.64
2022-10-22T03:06:16.201Z,16.64
2022-10-22T03:08:43.532Z,16.62
2022-10-22T03:11:10.561Z,16.58
2022-10-22T03:13:37.394Z,16.58
2022-10-22T03:16:04.561Z,16.58
2022-10-22T03:18:31.296Z,16.59
2022-10-22T03:21:19.582Z,16.61
2022-10-22T03:23:46.696Z,16.63
2022-10-22T03:26:14.297Z,16.60
2022-10-22T03:28:42.302Z,16.58
2022-10-22T03:31:09.572Z,16.60
2022-10-22T03:33:36.281Z,16.61
2022-10-22T03:36:03.030Z,16.59
2022-10-22T03:38:30.647Z,16.60
2022-10-22T03:40:58.082Z,16.60
2022-10-22T03:43:24.935Z,16.58
2022-10-22T03:45:52.169Z,16.54
2022-10-22T03:48:27.179Z,16.55
2022-10-22T03:50:54.032Z,16.54
2022-10-22T03:53:21.580Z,16.56
2022-10-22T03:55:48.434Z,16.57
2022-10-22T03:58:15.201Z,16.55
2022-10-22T04:00:42.004Z,16.55
2022-10-22T04:03:08.743Z,16.53
2022-10-22T04:05:35.464Z,16.52
2022-10-22T04:08:02.196Z,16.46
2022-10-22T04:10:29.007Z,16.43
2022-10-22T04:12:55.850Z,16.39
2022-10-22T04:15:22.667Z,16.41
2022-10-22T04:17:49.413Z,16.33
2022-10-22T04:20:16.238Z,16.26
2022-10-22T04:22:42.983Z,16.25
2022-10-22T04:25:09.995Z,16.24
2022-10-22T04:27:37.362Z,16.26
2022-10-22T04:30:06.730Z,16.30
2022-10-22T04:32:33.479Z,16.33
2022-10-22T04:35:00.295Z,16.30
2022-10-22T04:37:27.004Z,16.28
2022-10-22T04:39:53.854Z,16.26
2022-10-22T04:42:20.615Z,16.25
2022-10-22T04:44:47.341Z,16.22
2022-10-22T04:47:14.107Z,16.19
2022-10-22T04:49:41.006Z,16.23
2022-10-22T04:52:07.849Z,16.19
2022-10-22T04:54:34.751Z,16.19
2022-10-22T04:57:01.563Z,16.10
2022-10-22T04:59:28.323Z,16.10
2022-10-22T05:01:55.267Z,16.12
2022-10-22T05:04:22.034Z,16.13
2022-10-22T05:06:48.833Z,16.09
2022-10-22T05:09:18.579Z,16.07
2022-10-22T05:11:48.971Z,16.04
2022-10-22T05:14:24.802Z,16.01
2022-10-22T05:16:52.418Z,15.98
2022-10-22T05:19:24.156Z,15.98
2022-10-22T05:21:52.863Z,15.99
2022-10-22T05:24:19.605Z,16.02
2022-10-22T05:26:46.502Z,16.02
2022-10-22T05:29:13.968Z,16.03
2022-10-22T05:31:41.330Z,16.02
2022-10-22T05:34:08.165Z,16.04
2022-10-22T05:36:35.152Z,15.99
2022-10-22T05:39:02.061Z,15.99
2022-10-22T05:41:29.429Z,15.99
2022-10-22T05:43:58.176Z,16.00
2022-10-22T05:46:27.533Z,16.00
2022-10-22T05:48:57.100Z,15.98
2022-10-22T05:51:24.827Z,15.92
2022-10-22T05:53:57.287Z,15.87
2022-10-22T05:56:25.558Z,15.85
2022-10-22T05:58:52.808Z,15.85
2022-10-22T06:01:24.947Z,15.81
2022-10-22T06:03:56.886Z,15.76
2022-10-22T06:06:37.446Z,15.74
2022-10-22T06:09:21.475Z,15.70
2022-10-22T06:11:48.984Z,15.68
2022-10-22T06:14:17.255Z,15.64
2022-10-22T06:16:44.192Z,15.62
2022-10-22T06:19:16.499Z,15.64
2022-10-22T06:21:44.009Z,15.66
2022-10-22T06:24:12.004Z,15.66
2022-10-22T06:26:39.979Z,15.63
2022-10-22T06:29:07.702Z,15.65
2022-10-22T06:31:37.152Z,15.67
2022-10-22T06:34:10.750Z,15.66
2022-10-22T06:36:38.333Z,15.67
2022-10-22T06:39:05.624Z,15.66
2022-10-22T06:41:32.605Z,15.63
2022-10-22T06:44:00.242Z,15.58
2022-10-22T06:46:27.262Z,15.55
2022-10-22T06:49:02.661Z,15.58
2022-10-22T06:51:29.998Z,15.61
2022-10-22T06:53:58.255Z,15.61
2022-10-22T06:56:28.969Z,15.60
2022-10-22T06:58:57.417Z,15.57
2022-10-22T07:01:28.246Z,15.55
2022-10-22T07:03:55.416Z,15.54
2022-10-22T07:06:23.341Z,15.57
2022-10-22T07:08:50.546Z,15.61
2022-10-22T07:11:23.344Z,15.61
2022-10-22T07:13:51.188Z,15.61
2022-10-22T07:16:18.628Z,15.60
2022-10-22T07:18:46.846Z,15.61
2022-10-22T07:21:16.274Z,15.62
2022-10-22T07:23:43.228Z,15.65
2022-10-22T07:26:12.719Z,15.64
2022-10-22T07:28:41.217Z,15.62
2022-10-22T07:31:10.223Z,15.63
2022-10-22T07:33:37.937Z,15.62
2022-10-22T07:36:07.721Z,15.66
2022-10-22T07:38:36.436Z,15.71
2022-10-22T07:41:03.946Z,15.75
2022-10-22T07:43:30.739Z,15.75
2022-10-22T07:45:57.665Z,15.72
2022-10-22T07:48:30.434Z,15.72
2022-10-22T07:50:58.578Z,15.69
2022-10-22T07:53:25.619Z,15.69
2022-10-22T07:55:53.091Z,15.74
2022-10-22T07:58:27.171Z,15.77
2022-10-22T08:01:00.966Z,15.77
2022-10-22T08:03:28.581Z,15.77
2022-10-22T08:05:56.177Z,15.77
2022-10-22T08:08:28.345Z,15.78
2022-10-22T08:10:59.581Z,15.81
2022-10-22T08:13:27.736Z,15.83
2022-10-22T08:15:57.381Z,15.83
2022-10-22T08:18:31.221Z,15.85
2022-10-22T08:20:58.306Z,15.88
2022-10-22T08:23:27.599Z,15.90
2022-10-22T08:25:56.070Z,15.92
2022-10-22T08:28:29.753Z,15.89
2022-10-22T08:30:57.666Z,15.94
2022-10-22T08:33:25.717Z,15.91
2022-10-22T08:35:54.673Z,15.91
2022-10-22T08:38:26.470Z,15.90
2022-10-22T08:40:57.475Z,15.91
2022-10-22T08:43:49.023Z,15.90
2022-10-22T08:46:34.289Z,15.92
2022-10-22T08:49:05.649Z,15.92
2022-10-22T08:51:40.765Z,15.92
2022-10-22T08:54:22.326Z,15.92
2022-10-22T08:57:09.975Z,15.93
2022-10-22T08:59:59.865Z,15.93
2022-10-22T09:02:29.319Z,15.94
2022-10-22T09:05:25.438Z,16.00
2022-10-22T09:07:53.289Z,16.02
2022-10-22T09:10:36.045Z,16.01
2022-10-22T09:13:03.060Z,16.00
2022-10-22T09:15:31.647Z,16.00
2022-10-22T09:18:31.654Z,16.04
2022-10-22T09:21:27.989Z,16.07
2022-10-22T09:23:57.737Z,16.08
2022-10-22T09:26:26.069Z,16.10
2022-10-22T09:28:53.318Z,16.13
2022-10-22T09:31:20.173Z,16.15
2022-10-22T09:33:50.401Z,16.18
2022-10-22T09:36:18.753Z,16.19
2022-10-22T09:38:49.387Z,16.25
2022-10-22T09:41:17.425Z,16.31
2022-10-22T09:43:47.689Z,16.37
2022-10-22T09:46:26.606Z,16.43
2022-10-22T09:48:56.118Z,16.47
2022-10-22T09:51:36.515Z,16.49
2022-10-22T09:54:19.069Z,16.58
2022-10-22T09:57:18.188Z,16.64
2022-10-22T09:59:49.180Z,16.72
2022-10-22T10:02:37.542Z,16.76
2022-10-22T10:05:06.738Z,16.79
2022-10-22T10:07:36.123Z,16.80
2022-10-22T10:10:12.458Z,16.84
2022-10-22T10:12:48.997Z,16.93
2022-10-22T10:15:23.183Z,17.01
2022-10-22T10:18:04.303Z,17.09
2022-10-22T10:20:43.340Z,17.17
2022-10-22T10:23:16.001Z,17.20
2022-10-22T10:26:20.638Z,17.27
2022-10-22T10:29:05.900Z,17.37
2022-10-22T10:31:49.884Z,17.42
2022-10-22T10:34:19.398Z,17.47
2022-10-22T10:37:12.385Z,17.48
2022-10-22T10:39:45.125Z,17.53
2022-10-22T10:42:20.274Z,17.57
2022-10-22T10:45:23.368Z,17.61
2022-10-22T10:48:05.249Z,17.66
2022-10-22T10:50:35.038Z,17.69
2022-10-22T10:53:20.062Z,17.72
2022-10-22T10:56:05.033Z,17.75
2022-10-22T10:58:40.005Z,17.80
2022-10-22T11:01:23.302Z,17.84
2022-10-22T11:04:14.810Z,17.90
2022-10-22T11:06:45.034Z,17.93
2022-10-22T11:09:37.791Z,17.97
2022-10-22T11:12:15.255Z,17.99
2022-10-22T11:14:57.364Z,18.02
2022-10-22T11:17:28.651Z,18.04
2022-10-22T11:20:04.621Z,18.05
2022-10-22T11:23:13.071Z,18.08
2022-10-22T11:25:59.619Z,18.12
2022-10-22T11:28:38.126Z,18.14
2022-10-22T11:31:14.019Z,18.14
2022-10-22T11:34:04.995Z,18.17
2022-10-22T11:36:38.376Z,18.23
2022-10-22T11:39:05.587Z,18.24
2022-10-22T11:41:34.634Z,18.27
2022-10-22T11:44:11.973Z,18.25
2022-10-22T11:46:44.601Z,18.26
2022-10-22T11:49:14.389Z,18.25
2022-10-22T11:51:43.242Z,18.26
2022-10-22T11:54:30.090Z,18.29
2022-10-22T11:57:15.087Z,18.31
2022-10-22T11:59:50.009Z,18.30
2022-10-22T12:02:29.068Z,18.33
2022-10-22T12:05:16.684Z,18.38
2022-10-22T12:08:03.787Z,18.44
2022-10-22T12:10:57.666Z,18.51
2022-10-22T12:13:30.942Z,18.59
2022-10-22T12:16:03.946Z,18.62
2022-10-22T12:18:49.831Z,18.63
2022-10-22T12:21:17.906Z,18.64
2022-10-22T12:23:46.891Z,18.65
2022-10-22T12:29:20.252Z,18.72
2022-10-22T12:31:47.917Z,18.77
2022-10-22T12:34:19.076Z,18.79
2022-10-22T12:36:49.019Z,18.85
2022-10-22T12:39:19.120Z,18.89
2022-10-22T12:41:46.257Z,18.91
2022-10-22T12:44:16.983Z,18.91
2022-10-22T12:49:29.070Z,18.93
2022-10-22T12:51:55.983Z,18.96
2022-10-22T12:54:27.211Z,18.98
2022-10-22T12:56:59.541Z,19.03
2022-10-22T12:59:42.819Z,19.08
2022-10-22T13:02:26.299Z,19.12
2022-10-22T13:05:11.874Z,19.13
2022-10-22T13:07:41.568Z,19.11
2022-10-22T13:10:18.973Z,19.10
2022-10-22T13:12:50.614Z,19.10
2022-10-22T13:15:32.281Z,19.08
2022-10-22T13:18:03.848Z,19.05
2022-10-22T13:20:30.857Z,19.03
2022-10-22T13:23:03.469Z,18.99
2022-10-22T13:25:35.867Z,18.97
2022-10-22T13:28:31.295Z,18.95
2022-10-22T13:31:09.739Z,18.98
2022-10-22T13:33:40.429Z,19.02
2022-10-22T13:36:09.241Z,19.11
2022-10-22T13:38:36.520Z,19.10
2022-10-22T13:41:05.032Z,19.16
2022-10-22T13:43:31.896Z,19.12
2022-10-22T13:46:00.176Z,19.09
2022-10-22T13:48:32.407Z,19.07
2022-10-22T13:50:59.440Z,19.04
2022-10-22T13:53:29.464Z,19.03
2022-10-22T13:55:56.543Z,18.99
2022-10-22T13:58:36.726Z,18.99
2022-10-22T14:01:08.890Z,19.01
2022-10-22T14:03:38.210Z,19.02
2022-10-22T14:06:12.334Z,19.02
2022-10-22T14:08:39.227Z,19.04
2022-10-22T14:11:06.182Z,19.03
2022-10-22T14:13:32.933Z,19.03
2022-10-22T14:15:59.697Z,19.02
2022-10-22T14:18:33.340Z,18.99
2022-10-22T14:21:05.433Z,18.96
2022-10-22T14:23:32.794Z,18.93
2022-10-22T14:26:00.554Z,18.85
2022-10-22T14:28:34.165Z,18.77
2022-10-22T14:31:11.003Z,18.71
2022-10-22T14:33:38.030Z,18.68
2022-10-22T14:36:05.025Z,18.68
2022-10-22T14:38:37.433Z,18.68
2022-10-22T14:41:14.974Z,18.65
2022-10-22T14:43:41.706Z,18.61
2022-10-22T14:46:11.167Z,18.58
2022-10-22T14:48:37.937Z,18.56
2022-10-22T14:51:04.887Z,18.56
2022-10-22T14:53:31.638Z,18.58
2022-10-22T14:55:59.826Z,18.55
2022-10-22T14:58:33.594Z,18.53
2022-10-22T15:01:02.572Z,18.53
2022-10-22T15:03:29.395Z,18.51
2022-10-22T15:05:56.246Z,18.52
2022-10-22T15:08:31.328Z,18.57
2022-10-22T15:11:04.110Z,18.63
2022-10-22T15:13:30.795Z,18.64
2022-10-22T15:15:58.405Z,18.57
2022-10-22T15:18:37.652Z,18.57
2022-10-22T15:21:10.209Z,18.59
2022-10-22T15:23:39.519Z,18.59
2022-10-22T15:26:10.323Z,18.60
2022-10-22T15:28:38.949Z,18.60
2022-10-22T15:31:06.519Z,18.58
2022-10-22T15:33:33.669Z,18.57
2022-10-22T15:36:16.859Z,18.61
2022-10-22T15:38:43.696Z,18.61
2022-10-22T15:41:13.662Z,18.61
2022-10-22T15:43:40.646Z,18.59
2022-10-22T15:46:18.918Z,18.58
2022-10-22T15:48:46.342Z,18.61
2022-10-22T15:51:17.453Z,18.60
2022-10-22T15:53:45.090Z,18.58
2022-10-22T15:56:12.252Z,18.54
2022-10-22T15:58:39.018Z,18.53
2022-10-22T16:01:10.779Z,18.54
2022-10-22T16:03:38.027Z,18.55
2022-10-22T16:06:06.817Z,18.53
2022-10-22T16:08:34.043Z,18.50
2022-10-22T16:11:00.934Z,18.49
2022-10-22T16:13:28.097Z,18.50
2022-10-22T16:15:54.850Z,18.51
2022-10-22T16:18:30.074Z,18.48
2022-10-22T16:21:00.313Z,18.48
2022-10-22T16:23:27.100Z,18.46
2022-10-22T16:25:54.595Z,18.45
2022-10-22T16:28:23.080Z,18.45
2022-10-22T16:30:49.935Z,18.44
2022-10-22T16:33:16.780Z,18.41
2022-10-22T16:35:43.688Z,18.39
2022-10-22T16:38:11.273Z,18.39
2022-10-22T16:40:38.446Z,18.40
2022-10-22T16:43:05.532Z,18.39
2022-10-22T16:45:32.370Z,18.36
2022-10-22T16:47:59.101Z,18.34
2022-10-22T16:50:26.156Z,18.31
2022-10-22T16:52:52.944Z,18.32
2022-10-22T16:55:19.884Z,18.31
2022-10-22T16:57:53.654Z,18.29
2022-10-22T17:00:21.090Z,18.27
2022-10-22T17:02:54.614Z,18.23
2022-10-22T17:05:22.051Z,18.20
2022-10-22T17:07:50.394Z,18.19
2022-10-22T17:10:19.843Z,18.19
2022-10-22T17:12:47.756Z,18.18
2022-10-22T17:15:15.383Z,18.18
2022-10-22T17:17:42.165Z,18.15
2022-10-22T17:20:09.140Z,18.12
2022-10-22T17:22:35.981Z,18.09
2022-10-22T17:25:32.945Z,18.05
2022-10-22T17:27:59.754Z,18.02
2022-10-22T17:30:27.415Z,18.02
2022-10-22T17:32:54.981Z,18.00
2022-10-22T17:35:21.902Z,17.98
2022-10-22T17:37:48.705Z,17.96
2022-10-22T17:40:15.920Z,17.95
2022-10-22T17:42:49.589Z,17.93
2022-10-22T17:45:16.908Z,17.92
2022-10-22T17:47:44.014Z,17.90
2022-10-22T17:50:11.473Z,17.88
2022-10-22T17:52:38.449Z,17.85
2022-10-22T17:55:05.629Z,17.81
2022-10-22T17:57:32.527Z,17.82
2022-10-22T17:59:59.364Z,17.83
2022-10-22T18:02:26.432Z,17.84
2022-10-22T18:04:53.185Z,17.86
2022-10-22T18:07:21.059Z,17.87
2022-10-22T18:09:48.272Z,17.89
2022-10-22T18:12:18.162Z,17.88
2022-10-22T18:14:47.179Z,17.86
2022-10-22T18:20:02.585Z,17.84
2022-10-22T18:22:29.370Z,17.84
2022-10-22T18:24:56.466Z,17.81
2022-10-22T18:27:23.292Z,17.79
2022-10-22T18:29:50.816Z,17.80
2022-10-22T18:32:17.872Z,17.80
2022-10-22T18:34:44.671Z,17.78
2022-10-22T18:37:12.467Z,17.77
2022-10-22T18:39:39.655Z,17.77
2022-10-22T18:42:07.383Z,17.76
2022-10-22T18:44:35.373Z,17.74
2022-10-22T18:47:02.283Z,17.74
2022-10-22T18:49:29.253Z,17.75
2022-10-22T18:51:56.234Z,17.75
2022-10-22T18:54:24.458Z,17.74
2022-10-22T18:56:53.316Z,17.75
2022-10-22T18:59:23.641Z,17.73
2022-10-22T19:01:52.930Z,17.74
2022-10-22T19:04:20.225Z,17.73
2022-10-22T19:06:47.460Z,17.72
2022-10-22T19:09:15.824Z,17.75
2022-10-22T19:11:44.821Z,17.75
2022-10-22T19:14:13.645Z,17.74
2022-10-22T19:16:40.599Z,17.72
2022-10-22T19:19:08.524Z,17.73
2022-10-22T19:21:37.431Z,17.74
2022-10-22T19:24:04.398Z,17.73
2022-10-22T19:26:31.960Z,17.72
2022-10-22T19:28:59.795Z,17.70
2022-10-22T19:31:28.624Z,17.72
2022-10-22T19:33:55.883Z,17.69
2022-10-22T19:36:29.030Z,17.67
2022-10-22T19:38:57.652Z,17.66
2022-10-22T19:41:26.969Z,17.65
2022-10-22T19:43:55.639Z,17.63
2022-10-22T19:46:23.543Z,17.64
2022-10-22T19:48:51.608Z,17.64
2022-10-22T19:51:24.296Z,17.61
2022-10-22T19:53:56.596Z,17.60
2022-10-22T19:56:23.480Z,17.58
2022-10-22T19:58:53.911Z,17.57
2022-10-22T20:01:21.120Z,17.56
2022-10-22T20:03:53.424Z,17.57
2022-10-22T20:06:20.697Z,17.56
2022-10-22T20:08:48.374Z,17.54
2022-10-22T20:11:22.980Z,17.54
2022-10-22T20:13:52.242Z,17.55
2022-10-22T20:16:23.296Z,17.54
2022-10-22T20:18:50.676Z,17.54
2022-10-22T20:21:19.526Z,17.54
2022-10-22T20:23:47.497Z,17.54
2022-10-22T20:26:14.421Z,17.54
2022-10-22T20:28:41.277Z,17.57
2022-10-22T20:31:11.311Z,17.58
2022-10-22T20:33:38.432Z,17.59
2022-10-22T20:36:08.639Z,17.57
2022-10-22T20:41:23.416Z,17.56
2022-10-22T20:43:51.801Z,17.59
2022-10-22T20:46:23.176Z,17.57
2022-10-22T20:48:55.437Z,17.56
2022-10-22T20:51:22.661Z,17.57
2022-10-22T20:53:49.396Z,17.54
2022-10-22T20:56:17.023Z,17.54
2022-10-22T20:58:51.717Z,17.54
2022-10-22T21:01:24.321Z,17.56
2022-10-22T21:03:51.862Z,17.58
2022-10-22T21:06:23.298Z,17.56
2022-10-22T21:08:51.326Z,17.54
2022-10-22T21:11:20.132Z,17.54
2022-10-22T21:13:47.196Z,17.53
2022-10-22T21:16:15.491Z,17.51
2022-10-22T21:18:42.204Z,17.50
2022-10-22T21:21:09.362Z,17.50
2022-10-22T21:23:37.078Z,17.49
2022-10-22T21:26:04.950Z,17.49
2022-10-22T21:28:35.619Z,17.47
2022-10-22T21:31:08.422Z,17.46
2022-10-22T21:33:39.393Z,17.45
2022-10-22T21:36:07.414Z,17.45
2022-10-22T21:38:34.955Z,17.44
2022-10-22T21:41:10.083Z,17.42
2022-10-22T21:43:37.685Z,17.40
2022-10-22T21:46:16.253Z,17.39
2022-10-22T21:48:43.835Z,17.38
2022-10-22T21:51:17.079Z,17.37
2022-10-22T21:53:44.407Z,17.37
2022-10-22T21:56:19.443Z,17.36
2022-10-22T21:58:46.952Z,17.34
2022-10-22T22:01:21.275Z,17.32
2022-10-22T22:03:49.587Z,17.30
2022-10-22T22:06:21.281Z,17.28
2022-10-22T22:08:50.130Z,17.26
2022-10-22T22:11:22.894Z,17.25
2022-10-22T22:13:51.429Z,17.24
2022-10-22T22:16:25.428Z,17.21
2022-10-22T22:18:55.249Z,17.20
2022-10-22T22:21:22.203Z,17.20
2022-10-22T22:23:50.709Z,17.18
2022-10-22T22:26:26.733Z,17.20
2022-10-22T22:28:58.575Z,17.19
2022-10-22T22:31:28.301Z,17.19
2022-10-22T22:33:59.946Z,17.19
2022-10-22T22:36:26.778Z,17.20
2022-10-22T22:38:57.118Z,17.21
2022-10-22T22:41:24.158Z,17.21
2022-10-22T22:43:50.999Z,17.23
2022-10-22T22:46:17.982Z,17.23
2022-10-22T22:48:47.307Z,17.25
2022-10-22T22:51:14.179Z,17.25
2022-10-22T22:53:40.947Z,17.28
2022-10-22T22:56:12.003Z,17.28
2022-10-22T22:58:42.802Z,17.29
2022-10-22T23:01:14.586Z,17.32
2022-10-22T23:03:42.630Z,17.32
2022-10-22T23:06:10.081Z,17.32
2022-10-22T23:08:37.112Z,17.32
2022-10-22T23:11:06.786Z,17.34
2022-10-22T23:13:34.607Z,17.33
2022-10-22T23:16:06.448Z,17.33
2022-10-22T23:18:33.302Z,17.33
2022-10-22T23:21:03.927Z,17.34
2022-10-22T23:23:32.815Z,17.35
2022-10-22T23:26:00.236Z,17.35
2022-10-22T23:28:29.929Z,17.34
2022-10-22T23:30:56.657Z,17.35
2022-10-22T23:33:23.373Z,17.34
2022-10-22T23:35:50.105Z,17.36
2022-10-22T23:38:24.110Z,17.38
2022-10-22T23:40:57.255Z,17.38
2022-10-22T23:43:25.432Z,17.38
2022-10-22T23:45:53.444Z,17.37
2022-10-22T23:48:27.483Z,17.36
2022-10-22T23:50:54.249Z,17.35
2022-10-22T23:53:20.971Z,17.37
2022-10-22T23:55:47.846Z,17.38
2022-10-22T23:58:14.608Z,17.36
